Kyle, United Kingdom
Current Conditions -  °F | °C
As of 12:20 AM on Friday 19 Dec 2014 (Local Time) from EGPL Reporting Station
Clear Clear  
Wind Chill: 29°   Ceiling: Unl
Heat Index: 41°   Visibility: 6mi
Dew Point: 36°   Wind: 32mph
Humidity: 81%   Direction: 260°W
Pressure: 29.32"   Gusts: NA
Location:  57.28°N, 5.72°W
Report Text: EGPL 190020Z AUTO 26028KT 9999 NCD 05/02 Q0993
Loading
Personal Weather Stations






























Interactive Weather Map New forecast layout! Learn more

10-Day Weather Forecast

Advertisements
Track Severe Weather on mobile